Flight Track Log - Related Links

Times and Time Zones

All times are in EDT time to prevent confusion due to time zone crossing. See the SWA378 flight status page for this flight to view local times or setup timezone preferences in your user account.

Time Position Orientation Groundspeed Altitude Reporting Facility
EDT Latitude Longitude Course Direction KTS MPH feet Rate Location/Type
Mon 11:08:32 AM 37.3833 -121.9500 322° Northwest 171 197 800  Level Northern Cal TRACON
Mon 11:09:26 AM 37.4167 -121.9833 322° Northwest 208 239 2,700 2,211 Climbing Northern Cal TRACON
Mon 11:10:26 AM 37.4333 -121.9167 73° East 239 275 5,000 2,050 Climbing Northern Cal TRACON
Mon 11:11:26 AM 37.4000 -121.8667 130° Southeast 247 284 6,800 2,423 Climbing Northern Cal TRACON
Mon 11:12:10 AM 37.3608 -121.8253 140° Southeast 244 281 9,200 2,400 Climbing Oakland Center
Mon 11:13:11 AM 37.3058 -121.7653 139° Southeast 257 296 11,000 1,918 Climbing Oakland Center
Mon 11:14:12 AM 37.2336 -121.6839 138° Southeast 329 379 13,100 2,390 Climbing Oakland Center
Mon 11:15:14 AM 37.1589 -121.6003 138° Southeast 354 407 15,900 2,829 Climbing Oakland Center
Mon 11:16:15 AM 37.0753 -121.5072 138° Southeast 376 433 18,900 2,705 Climbing Oakland Center
Mon 11:17:16 AM 37.0003 -121.4286 140° Southeast 375 432 21,400 2,410 Climbing Oakland Center
Mon 11:18:17 AM 36.9028 -121.3219 139° Southeast 385 443 23,800 2,066 Climbing Oakland Center
Mon 11:19:18 AM 36.8172 -121.2289 139° Southeast 403 464 25,600 1,561 Climbing Oakland Center
Mon 11:20:20 AM 36.7431 -121.1469 138° Southeast 412 474 27,000 1,805 Climbing Oakland Center
Mon 11:21:21 AM 36.6400 -121.0253 137° Southeast 422 486 29,300 2,164 Climbing Oakland Center
Mon 11:22:22 AM 36.5669 -120.9106 128° Southeast 421 484 31,400 2,177 Climbing Oakland Center
Mon 11:23:25 AM 36.4950 -120.7975 128° Southeast 419 482 33,800 2,000 Climbing Oakland Center
Mon 11:24:25 AM 36.4242 -120.6897 129° Southeast 406 467 35,500 1,438 Climbing Oakland Center
Mon 11:25:26 AM 36.3525 -120.5814 129° Southeast 405 466 36,700 732 Climbing Oakland Center
Mon 11:26:28 AM 36.2792 -120.4686 129° Southeast 415 478 37,000 146 Climbing Oakland Center
Mon 11:27:29 AM 36.2061 -120.3581 129° Southeast 415 478 37,000  Level Oakland Center
Mon 11:28:31 AM 36.1319 -120.2464 129° Southeast 417 480 37,000  Level Oakland Center
Mon 11:29:32 AM 36.0586 -120.1356 129° Southeast 417 480 37,000  Level Oakland Center
Mon 11:30:34 AM 35.9842 -120.0244 130° Southeast 417 480 37,000  Level Oakland Center
Mon 11:31:35 AM 35.8958 -119.8914 129° Southeast 417 480 37,000  Level Oakland Center
Mon 11:32:36 AM 35.8214 -119.7817 130° Southeast 415 478 37,000  Level Oakland Center
Mon 11:33:38 AM 35.7469 -119.6725 130° Southeast 415 478 37,000  Level Oakland Center
Mon 11:34:39 AM 35.6722 -119.5614 130° Southeast 417 480 37,000  Level Oakland Center
Mon 11:35:41 AM 35.5969 -119.4514 130° Southeast 419 482 37,000  Level Oakland Center
Mon 11:36:42 AM 35.5233 -119.3422 130° Southeast 417 480 37,000  Level Oakland Center
Mon 11:37:44 AM 35.4475 -119.2306 130° Southeast 420 483 37,000  Level Oakland Center
Mon 11:38:45 AM 35.3711 -119.1217 131° Southeast 421 484 37,000  Level Oakland Center
Mon 11:39:47 AM 35.2950 -119.0108 130° Southeast 422 486 37,000  Level Oakland Center
Mon 11:40:48 AM 35.2192 -118.8997 130° Southeast 424 488 37,000  Level Oakland Center
Mon 11:41:50 AM 35.1272 -118.7669 130° Southeast 426 490 37,000 -390 Level Oakland Center
Mon 11:42:51 AM 35.0497 -118.6581 131° Southeast 426 490 36,200 -2,098 Descending Oakland Center
Mon 11:43:53 AM 34.9736 -118.5469 130° Southeast 426 490 32,700 -2,589 Descending Oakland Center
Mon 11:45:17 AM 34.8661 -118.3978 131° Southeast 423 487 29,900 -1,644 Descending Los Angeles Center
Mon 11:46:19 AM 34.7950 -118.2961 130° Southeast 406 467 28,700 -1,887 Descending Los Angeles Center
Mon 11:47:21 AM 34.7225 -118.1936 131° Southeast 404 465 26,000 -2,613 Descending Los Angeles Center
Mon 11:48:23 AM 34.6444 -118.0842 131° Southeast 393 452 23,300 -1,676 Descending Los Angeles Center
Mon 11:49:37 AM 34.5850 -117.9667 122° Southeast 375 432 22,200 -1,456 Descending Los Angeles Center
Mon 11:50:39 AM 34.5253 -117.8333 119° Southeast 378 435 20,000 -2,371 Descending Los Angeles Center
Mon 11:51:41 AM 34.4758 -117.7269 119° Southeast 364 419 17,300 -2,352 Descending Los Angeles Center
Mon 11:52:44 AM 34.4272 -117.6214 119° Southeast 361 415 15,100 -1,776 Descending Los Angeles Center
Mon 11:53:46 AM 34.3792 -117.5144 119° Southeast 321 369 13,600 -1,016 Descending Los Angeles Center
Mon 11:54:48 AM 34.3400 -117.4281 119° Southeast 299 344 13,000 -1,548 Descending Los Angeles Center
Mon 11:55:50 AM 34.2794 -117.3906 153° Southeast 269 310 10,400 -2,806 Descending Los Angeles Center
Mon 11:56:52 AM 34.2050 -117.4075 191° South 272 313 7,200 -2,806 Descending Los Angeles Center
Mon 11:57:54 AM 34.1372 -117.4444 204° Southwest 270 311 4,600 -1,935 Descending Los Angeles Center
Mon 11:58:56 AM 34.0764 -117.4831 208° Southwest 233 268 3,200 -1,421 Descending Los Angeles Center
Mon 11:59:48 AM 34.0500 -117.5333 238° Southwest 160 184 1,900 -1,071 Descending Southern California TRACON
Mon 12:00:48 PM 34.0500 -117.5667 270° West 135 155 1,200 -700 Descending Southern California TRACON
Mon 12:03:00 PM 34.0500 -117.6000 270° West  Level FlightAware Approximate
Mon 12:10:00 PM 34.0560 -117.6012 270° West  Level Estimated
Mon 12:11:00 PM 34.0500 -117.6000 270° West  Level FlightAware Approximate
Mon 12:12:00 PM 34.0560 -117.6012 270° West  Level Estimated

Login

Don't have an account? Register now (free) for customized features, flight alerts, and more!